16NY weather

CLOSED Station 241 Heliport
Syracuse, New York, United States

Public forecast

Using degrees Fahrenheit for public forecast. Weather courtesy of forecast.io.

METAR (pilot weather report)

Closest report is Syracuse Hancock International Airport, 10.3 nm (19.1 km) N. Retrieved 2019/07/22 08:54 UTC (18 minutes ago):

KSYR 220854Z 00000KT 10SM SCT110 BKN210 OVC240 20/16 A2987 RMK AO2 SLP108 T02000156 58005 $

TAF (pilot weather forecast)

Closest forecast is Syracuse Hancock International Airport, 10.3 nm (19.1 km) N. Retrieved 2019/07/22 06:22 UTC (3 hours ago):

TAF KSYR 220520Z 2206/2306 24004KT P6SM SCT100 FM221400 26004KT P6SM -SHRA OVC035 FM221600 05003KT 5SM -SHRA OVC025 FM230300 30004KT P6SM BKN035